sensor_id;sensor_type;location;lat;lon;timestamp;temperature;humidity
68511;SHT31;55512;50.102;19.958;2023-09-07T00:00:16;19.74;54.88
68511;SHT31;55512;50.102;19.958;2023-09-07T00:02:42;19.65;55.09
68511;SHT31;55512;50.102;19.958;2023-09-07T00:05:08;19.53;55.37
68511;SHT31;55512;50.102;19.958;2023-09-07T00:07:34;19.42;55.65
68511;SHT31;55512;50.102;19.958;2023-09-07T00:10:00;19.30;55.93
68511;SHT31;55512;50.102;19.958;2023-09-07T00:12:27;19.18;56.24
68511;SHT31;55512;50.102;19.958;2023-09-07T00:14:53;19.06;56.53
68511;SHT31;55512;50.102;19.958;2023-09-07T00:17:19;18.90;56.86
68511;SHT31;55512;50.102;19.958;2023-09-07T00:19:45;18.77;57.26
68511;SHT31;55512;50.102;19.958;2023-09-07T00:22:14;18.66;57.64
68511;SHT31;55512;50.102;19.958;2023-09-07T00:24:39;18.55;57.99
68511;SHT31;55512;50.102;19.958;2023-09-07T00:27:05;18.44;58.35
68511;SHT31;55512;50.102;19.958;2023-09-07T00:29:32;18.34;58.66
68511;SHT31;55512;50.102;19.958;2023-09-07T00:32:01;18.27;58.75
68511;SHT31;55512;50.102;19.958;2023-09-07T00:34:26;18.21;58.86
68511;SHT31;55512;50.102;19.958;2023-09-07T00:36:52;18.16;59.04
68511;SHT31;55512;50.102;19.958;2023-09-07T00:39:17;18.11;59.15
68511;SHT31;55512;50.102;19.958;2023-09-07T00:41:43;18.07;59.27
68511;SHT31;55512;50.102;19.958;2023-09-07T00:44:08;18.04;59.29
68511;SHT31;55512;50.102;19.958;2023-09-07T00:46:33;17.99;59.37
68511;SHT31;55512;50.102;19.958;2023-09-07T00:48:59;17.93;59.49
68511;SHT31;55512;50.102;19.958;2023-09-07T00:51:25;17.86;59.65
68511;SHT31;55512;50.102;19.958;2023-09-07T00:53:51;17.78;59.82
68511;SHT31;55512;50.102;19.958;2023-09-07T00:56:18;17.73;60.06
68511;SHT31;55512;50.102;19.958;2023-09-07T00:58:44;17.69;60.16
68511;SHT31;55512;50.102;19.958;2023-09-07T01:01:10;17.65;60.25
68511;SHT31;55512;50.102;19.958;2023-09-07T01:03:35;17.62;60.38
68511;SHT31;55512;50.102;19.958;2023-09-07T01:08:39;17.49;60.66
68511;SHT31;55512;50.102;19.958;2023-09-07T01:11:16;17.42;60.78
68511;SHT31;55512;50.102;19.958;2023-09-07T01:13:51;17.37;60.89
68511;SHT31;55512;50.102;19.958;2023-09-07T01:16:19;17.32;60.99
68511;SHT31;55512;50.102;19.958;2023-09-07T01:18:45;17.25;61.15
68511;SHT31;55512;50.102;19.958;2023-09-07T01:21:12;17.23;61.21
68511;SHT31;55512;50.102;19.958;2023-09-07T01:23:40;17.19;61.37
68511;SHT31;55512;50.102;19.958;2023-09-07T01:26:07;17.09;61.48
68511;SHT31;55512;50.102;19.958;2023-09-07T01:28:35;17.02;61.66
68511;SHT31;55512;50.102;19.958;2023-09-07T01:31:02;16.95;61.78
68511;SHT31;55512;50.102;19.958;2023-09-07T01:33:27;16.91;62.09
68511;SHT31;55512;50.102;19.958;2023-09-07T01:35:53;16.86;62.30
68511;SHT31;55512;50.102;19.958;2023-09-07T01:38:18;16.79;62.50
68511;SHT31;55512;50.102;19.958;2023-09-07T01:40:44;16.76;62.60
68511;SHT31;55512;50.102;19.958;2023-09-07T01:43:10;16.75;62.72
68511;SHT31;55512;50.102;19.958;2023-09-07T01:45:35;16.71;62.91
68511;SHT31;55512;50.102;19.958;2023-09-07T01:48:02;16.66;63.10
68511;SHT31;55512;50.102;19.958;2023-09-07T01:50:28;16.60;63.27
68511;SHT31;55512;50.102;19.958;2023-09-07T01:52:53;16.57;63.38
68511;SHT31;55512;50.102;19.958;2023-09-07T01:55:19;16.55;63.42
68511;SHT31;55512;50.102;19.958;2023-09-07T01:57:45;16.56;63.57
68511;SHT31;55512;50.102;19.958;2023-09-07T02:00:10;16.55;63.67
68511;SHT31;55512;50.102;19.958;2023-09-07T02:02:37;16.55;63.73
68511;SHT31;55512;50.102;19.958;2023-09-07T02:05:03;16.54;63.80
68511;SHT31;55512;50.102;19.958;2023-09-07T02:07:29;16.51;63.90
68511;SHT31;55512;50.102;19.958;2023-09-07T02:09:54;16.51;63.96
68511;SHT31;55512;50.102;19.958;2023-09-07T02:12:20;16.50;64.01
68511;SHT31;55512;50.102;19.958;2023-09-07T02:14:46;16.53;63.88
68511;SHT31;55512;50.102;19.958;2023-09-07T02:17:11;16.53;63.88
68511;SHT31;55512;50.102;19.958;2023-09-07T02:19:42;16.51;63.91
68511;SHT31;55512;50.102;19.958;2023-09-07T02:22:08;16.47;63.81
68511;SHT31;55512;50.102;19.958;2023-09-07T02:24:34;16.43;63.83
68511;SHT31;55512;50.102;19.958;2023-09-07T02:26:59;16.41;63.89
68511;SHT31;55512;50.102;19.958;2023-09-07T02:29:25;16.38;63.99
68511;SHT31;55512;50.102;19.958;2023-09-07T02:31:50;16.33;64.09
68511;SHT31;55512;50.102;19.958;2023-09-07T02:34:16;16.30;64.13
68511;SHT31;55512;50.102;19.958;2023-09-07T02:36:41;16.29;64.14
68511;SHT31;55512;50.102;19.958;2023-09-07T02:39:07;16.24;64.23
68511;SHT31;55512;50.102;19.958;2023-09-07T02:41:33;16.18;64.36
68511;SHT31;55512;50.102;19.958;2023-09-07T02:43:59;16.14;64.51
68511;SHT31;55512;50.102;19.958;2023-09-07T02:46:24;16.14;64.51
68511;SHT31;55512;50.102;19.958;2023-09-07T02:48:50;16.10;64.57
68511;SHT31;55512;50.102;19.958;2023-09-07T02:51:15;16.07;64.61
68511;SHT31;55512;50.102;19.958;2023-09-07T02:53:42;16.03;64.69
68511;SHT31;55512;50.102;19.958;2023-09-07T02:56:07;15.96;64.71
68511;SHT31;55512;50.102;19.958;2023-09-07T02:58:35;15.93;64.75
68511;SHT31;55512;50.102;19.958;2023-09-07T03:01:05;15.89;64.80
68511;SHT31;55512;50.102;19.958;2023-09-07T03:03:33;15.84;64.82
68511;SHT31;55512;50.102;19.958;2023-09-07T03:06:07;15.79;64.98
68511;SHT31;55512;50.102;19.958;2023-09-07T03:08:34;15.81;64.99
68511;SHT31;55512;50.102;19.958;2023-09-07T03:11:02;15.77;65.10
68511;SHT31;55512;50.102;19.958;2023-09-07T03:13:29;15.76;65.16
68511;SHT31;55512;50.102;19.958;2023-09-07T03:15:56;15.75;65.29
68511;SHT31;55512;50.102;19.958;2023-09-07T03:18:21;15.72;65.44
68511;SHT31;55512;50.102;19.958;2023-09-07T03:20:47;15.72;65.55
68511;SHT31;55512;50.102;19.958;2023-09-07T03:23:12;15.72;65.61
68511;SHT31;55512;50.102;19.958;2023-09-07T03:25:38;15.69;65.77
68511;SHT31;55512;50.102;19.958;2023-09-07T03:28:03;15.66;65.93
68511;SHT31;55512;50.102;19.958;2023-09-07T03:30:29;15.65;66.02
68511;SHT31;55512;50.102;19.958;2023-09-07T03:32:55;15.65;66.10
68511;SHT31;55512;50.102;19.958;2023-09-07T03:35:20;15.59;66.27
68511;SHT31;55512;50.102;19.958;2023-09-07T03:37:46;15.56;66.37
68511;SHT31;55512;50.102;19.958;2023-09-07T03:40:12;15.56;66.40
68511;SHT31;55512;50.102;19.958;2023-09-07T03:42:37;15.56;66.43
68511;SHT31;55512;50.102;19.958;2023-09-07T03:45:04;15.56;66.50
68511;SHT31;55512;50.102;19.958;2023-09-07T03:47:30;15.54;66.58
68511;SHT31;55512;50.102;19.958;2023-09-07T03:49:59;15.53;66.67
68511;SHT31;55512;50.102;19.958;2023-09-07T03:52:25;15.50;66.73
68511;SHT31;55512;50.102;19.958;2023-09-07T03:54:53;15.49;66.62
68511;SHT31;55512;50.102;19.958;2023-09-07T03:57:23;15.47;66.60
68511;SHT31;55512;50.102;19.958;2023-09-07T03:59:50;15.46;66.63
68511;SHT31;55512;50.102;19.958;2023-09-07T04:02:16;15.43;66.68
68511;SHT31;55512;50.102;19.958;2023-09-07T04:04:42;15.41;66.77
68511;SHT31;55512;50.102;19.958;2023-09-07T04:07:12;15.39;66.89
68511;SHT31;55512;50.102;19.958;2023-09-07T04:09:38;15.35;66.97
68511;SHT31;55512;50.102;19.958;2023-09-07T04:12:03;15.37;66.90
68511;SHT31;55512;50.102;19.958;2023-09-07T04:14:29;15.38;66.93
68511;SHT31;55512;50.102;19.958;2023-09-07T04:16:55;15.35;67.02
68511;SHT31;55512;50.102;19.958;2023-09-07T04:19:20;15.34;66.90
68511;SHT31;55512;50.102;19.958;2023-09-07T04:21:46;15.33;66.81
68511;SHT31;55512;50.102;19.958;2023-09-07T04:24:11;15.29;66.68
68511;SHT31;55512;50.102;19.958;2023-09-07T04:26:37;15.23;66.69
68511;SHT31;55512;50.102;19.958;2023-09-07T04:29:02;15.21;66.97
68511;SHT31;55512;50.102;19.958;2023-09-07T04:31:28;15.22;67.01
68511;SHT31;55512;50.102;19.958;2023-09-07T04:33:54;15.21;66.98
68511;SHT31;55512;50.102;19.958;2023-09-07T04:36:19;15.21;67.12
68511;SHT31;55512;50.102;19.958;2023-09-07T04:38:44;15.24;67.28
68511;SHT31;55512;50.102;19.958;2023-09-07T04:41:11;15.26;67.43
68511;SHT31;55512;50.102;19.958;2023-09-07T04:43:38;15.30;67.50
68511;SHT31;55512;50.102;19.958;2023-09-07T04:46:08;15.34;67.56
68511;SHT31;55512;50.102;19.958;2023-09-07T04:48:34;15.41;67.60
68511;SHT31;55512;50.102;19.958;2023-09-07T04:51:00;15.46;67.60
68511;SHT31;55512;50.102;19.958;2023-09-07T04:53:31;15.50;67.60
68511;SHT31;55512;50.102;19.958;2023-09-07T04:56:00;15.54;67.69
68511;SHT31;55512;50.102;19.958;2023-09-07T04:58:26;15.57;67.69
68511;SHT31;55512;50.102;19.958;2023-09-07T05:01:00;15.61;67.70
68511;SHT31;55512;50.102;19.958;2023-09-07T05:03:31;15.67;67.68
68511;SHT31;55512;50.102;19.958;2023-09-07T05:05:57;15.72;67.70
68511;SHT31;55512;50.102;19.958;2023-09-07T05:08:23;15.78;67.68
68511;SHT31;55512;50.102;19.958;2023-09-07T05:10:54;15.84;67.58
68511;SHT31;55512;50.102;19.958;2023-09-07T05:13:22;15.90;67.56
68511;SHT31;55512;50.102;19.958;2023-09-07T05:15:48;15.97;67.51
68511;SHT31;55512;50.102;19.958;2023-09-07T05:18:14;16.03;67.50
68511;SHT31;55512;50.102;19.958;2023-09-07T05:20:40;16.08;67.49
68511;SHT31;55512;50.102;19.958;2023-09-07T05:23:05;16.15;67.49
68511;SHT31;55512;50.102;19.958;2023-09-07T05:25:31;16.23;67.40
68511;SHT31;55512;50.102;19.958;2023-09-07T05:27:57;16.30;67.33
68511;SHT31;55512;50.102;19.958;2023-09-07T05:30:22;16.39;67.30
68511;SHT31;55512;50.102;19.958;2023-09-07T05:32:48;16.45;67.28
68511;SHT31;55512;50.102;19.958;2023-09-07T05:35:13;16.54;67.19
68511;SHT31;55512;50.102;19.958;2023-09-07T05:37:41;16.63;67.10
68511;SHT31;55512;50.102;19.958;2023-09-07T05:40:07;16.72;67.14
68511;SHT31;55512;50.102;19.958;2023-09-07T05:42:33;16.81;67.18
68511;SHT31;55512;50.102;19.958;2023-09-07T05:44:59;16.92;67.12
68511;SHT31;55512;50.102;19.958;2023-09-07T05:47:24;17.03;67.11
68511;SHT31;55512;50.102;19.958;2023-09-07T05:49:51;17.11;67.20
68511;SHT31;55512;50.102;19.958;2023-09-07T05:52:17;17.19;67.11
68511;SHT31;55512;50.102;19.958;2023-09-07T05:54:42;17.29;67.09
68511;SHT31;55512;50.102;19.958;2023-09-07T05:57:07;17.38;67.00
68511;SHT31;55512;50.102;19.958;2023-09-07T05:59:33;17.47;66.90
68511;SHT31;55512;50.102;19.958;2023-09-07T06:01:58;17.56;66.85
68511;SHT31;55512;50.102;19.958;2023-09-07T06:04:24;17.65;66.87
68511;SHT31;55512;50.102;19.958;2023-09-07T06:06:49;17.73;66.75
68511;SHT31;55512;50.102;19.958;2023-09-07T06:09:15;17.82;66.78
68511;SHT31;55512;50.102;19.958;2023-09-07T06:11:41;17.89;66.71
68511;SHT31;55512;50.102;19.958;2023-09-07T06:14:06;17.98;66.60
68511;SHT31;55512;50.102;19.958;2023-09-07T06:16:32;18.05;66.52
68511;SHT31;55512;50.102;19.958;2023-09-07T06:18:57;18.11;66.47
68511;SHT31;55512;50.102;19.958;2023-09-07T06:21:22;18.18;66.40
68511;SHT31;55512;50.102;19.958;2023-09-07T06:23:49;18.25;66.32
68511;SHT31;55512;50.102;19.958;2023-09-07T06:26:15;18.33;66.19
68511;SHT31;55512;50.102;19.958;2023-09-07T06:28:42;18.16;66.76
68511;SHT31;55512;50.102;19.958;2023-09-07T06:31:08;18.33;66.52
68511;SHT31;55512;50.102;19.958;2023-09-07T06:33:33;18.48;66.22
68511;SHT31;55512;50.102;19.958;2023-09-07T06:35:59;18.53;66.18
68511;SHT31;55512;50.102;19.958;2023-09-07T06:38:27;18.38;66.77
68511;SHT31;55512;50.102;19.958;2023-09-07T06:40:52;18.42;66.73
68511;SHT31;55512;50.102;19.958;2023-09-07T06:43:18;18.46;66.66
68511;SHT31;55512;50.102;19.958;2023-09-07T06:45:44;18.44;66.90
68511;SHT31;55512;50.102;19.958;2023-09-07T06:48:09;18.48;66.94
68511;SHT31;55512;50.102;19.958;2023-09-07T06:50:35;18.54;66.90
68511;SHT31;55512;50.102;19.958;2023-09-07T06:53:01;18.63;66.85
68511;SHT31;55512;50.102;19.958;2023-09-07T06:55:27;18.70;66.79
68511;SHT31;55512;50.102;19.958;2023-09-07T06:57:54;19.04;66.02
68511;SHT31;55512;50.102;19.958;2023-09-07T07:00:20;18.93;66.16
68511;SHT31;55512;50.102;19.958;2023-09-07T07:02:46;18.94;66.28
68511;SHT31;55512;50.102;19.958;2023-09-07T07:05:12;19.12;65.84
68511;SHT31;55512;50.102;19.958;2023-09-07T07:07:38;19.33;65.21
68511;SHT31;55512;50.102;19.958;2023-09-07T07:10:04;19.17;65.71
68511;SHT31;55512;50.102;19.958;2023-09-07T07:12:30;19.22;65.60
68511;SHT31;55512;50.102;19.958;2023-09-07T07:14:59;19.29;65.49
68511;SHT31;55512;50.102;19.958;2023-09-07T07:17:26;19.38;65.40
68511;SHT31;55512;50.102;19.958;2023-09-07T07:19:51;19.46;65.30
68511;SHT31;55512;50.102;19.958;2023-09-07T07:22:17;19.51;65.22
68511;SHT31;55512;50.102;19.958;2023-09-07T07:24:42;19.61;65.17
68511;SHT31;55512;50.102;19.958;2023-09-07T07:27:08;19.67;65.04
68511;SHT31;55512;50.102;19.958;2023-09-07T07:29:35;19.75;64.86
68511;SHT31;55512;50.102;19.958;2023-09-07T07:32:02;19.83;64.73
68511;SHT31;55512;50.102;19.958;2023-09-07T07:34:28;19.90;64.70
68511;SHT31;55512;50.102;19.958;2023-09-07T07:36:54;19.98;64.71
68511;SHT31;55512;50.102;19.958;2023-09-07T07:39:20;20.07;64.72
68511;SHT31;55512;50.102;19.958;2023-09-07T07:41:45;20.15;64.61
68511;SHT31;55512;50.102;19.958;2023-09-07T07:44:11;20.21;64.40
68511;SHT31;55512;50.102;19.958;2023-09-07T07:46:37;20.29;64.28
68511;SHT31;55512;50.102;19.958;2023-09-07T07:49:02;20.37;64.03
68511;SHT31;55512;50.102;19.958;2023-09-07T07:51:28;20.47;63.76
68511;SHT31;55512;50.102;19.958;2023-09-07T07:53:54;20.55;63.47
68511;SHT31;55512;50.102;19.958;2023-09-07T07:56:23;20.64;63.21
68511;SHT31;55512;50.102;19.958;2023-09-07T07:58:49;20.72;62.95
68511;SHT31;55512;50.102;19.958;2023-09-07T08:01:18;20.79;62.77
68511;SHT31;55512;50.102;19.958;2023-09-07T08:03:48;20.86;62.53
68511;SHT31;55512;50.102;19.958;2023-09-07T08:06:14;20.96;62.34
68511;SHT31;55512;50.102;19.958;2023-09-07T08:08:40;21.04;61.93
68511;SHT31;55512;50.102;19.958;2023-09-07T08:11:05;21.11;61.65
68511;SHT31;55512;50.102;19.958;2023-09-07T08:13:34;21.22;61.26
68511;SHT31;55512;50.102;19.958;2023-09-07T08:16:03;21.28;61.11
68511;SHT31;55512;50.102;19.958;2023-09-07T08:18:30;21.36;60.68
68511;SHT31;55512;50.102;19.958;2023-09-07T08:20:59;21.43;60.12
68511;SHT31;55512;50.102;19.958;2023-09-07T08:23:25;21.48;59.86
68511;SHT31;55512;50.102;19.958;2023-09-07T08:25:51;21.55;59.54
68511;SHT31;55512;50.102;19.958;2023-09-07T08:28:17;21.62;59.12
68511;SHT31;55512;50.102;19.958;2023-09-07T08:30:43;21.69;58.83
68511;SHT31;55512;50.102;19.958;2023-09-07T08:33:09;21.77;58.37
68511;SHT31;55512;50.102;19.958;2023-09-07T08:35:35;21.85;57.98
68511;SHT31;55512;50.102;19.958;2023-09-07T08:38:02;21.92;57.61
68511;SHT31;55512;50.102;19.958;2023-09-07T08:40:33;22.00;57.38
68511;SHT31;55512;50.102;19.958;2023-09-07T08:43:00;22.08;57.26
68511;SHT31;55512;50.102;19.958;2023-09-07T08:45:29;22.16;57.11
68511;SHT31;55512;50.102;19.958;2023-09-07T08:48:05;22.23;57.06
68511;SHT31;55512;50.102;19.958;2023-09-07T08:50:33;22.30;56.95
68511;SHT31;55512;50.102;19.958;2023-09-07T08:53:03;22.35;57.08
68511;SHT31;55512;50.102;19.958;2023-09-07T08:55:28;22.43;57.15
68511;SHT31;55512;50.102;19.958;2023-09-07T08:57:54;22.49;56.98
68511;SHT31;55512;50.102;19.958;2023-09-07T09:00:19;22.55;56.69
68511;SHT31;55512;50.102;19.958;2023-09-07T09:02:48;22.61;56.55
68511;SHT31;55512;50.102;19.958;2023-09-07T09:05:14;22.69;56.37
68511;SHT31;55512;50.102;19.958;2023-09-07T09:07:40;22.76;56.20
68511;SHT31;55512;50.102;19.958;2023-09-07T09:10:06;22.83;56.20
68511;SHT31;55512;50.102;19.958;2023-09-07T09:12:33;22.92;56.14
68511;SHT31;55512;50.102;19.958;2023-09-07T09:15:00;22.97;55.88
68511;SHT31;55512;50.102;19.958;2023-09-07T09:17:28;23.04;55.76
68511;SHT31;55512;50.102;19.958;2023-09-07T09:19:54;23.12;55.51
68511;SHT31;55512;50.102;19.958;2023-09-07T09:22:19;23.18;55.02
68511;SHT31;55512;50.102;19.958;2023-09-07T09:24:47;23.26;54.81
68511;SHT31;55512;50.102;19.958;2023-09-07T09:27:13;23.35;54.81
68511;SHT31;55512;50.102;19.958;2023-09-07T09:29:39;23.43;54.76
68511;SHT31;55512;50.102;19.958;2023-09-07T09:32:06;23.49;54.21
68511;SHT31;55512;50.102;19.958;2023-09-07T09:34:36;23.55;53.79
68511;SHT31;55512;50.102;19.958;2023-09-07T09:37:03;23.61;53.56
68511;SHT31;55512;50.102;19.958;2023-09-07T09:39:29;23.68;53.29
68511;SHT31;55512;50.102;19.958;2023-09-07T09:41:55;23.73;52.91
68511;SHT31;55512;50.102;19.958;2023-09-07T09:44:22;23.80;52.63
68511;SHT31;55512;50.102;19.958;2023-09-07T09:46:52;23.86;52.33
68511;SHT31;55512;50.102;19.958;2023-09-07T09:49:21;24.09;51.83
68511;SHT31;55512;50.102;19.958;2023-09-07T09:51:50;24.09;51.78
68511;SHT31;55512;50.102;19.958;2023-09-07T09:54:16;24.21;51.47
68511;SHT31;55512;50.102;19.958;2023-09-07T09:56:43;24.21;51.26
68511;SHT31;55512;50.102;19.958;2023-09-07T09:59:09;24.21;51.13
68511;SHT31;55512;50.102;19.958;2023-09-07T10:01:38;24.26;51.10
68511;SHT31;55512;50.102;19.958;2023-09-07T10:04:09;24.32;50.83
68511;SHT31;55512;50.102;19.958;2023-09-07T10:06:38;24.39;50.44
68511;SHT31;55512;50.102;19.958;2023-09-07T10:09:04;24.46;50.30
68511;SHT31;55512;50.102;19.958;2023-09-07T10:11:32;24.53;50.30
68511;SHT31;55512;50.102;19.958;2023-09-07T10:14:01;24.59;50.09
68511;SHT31;55512;50.102;19.958;2023-09-07T10:16:49;24.65;50.02
68511;SHT31;55512;50.102;19.958;2023-09-07T10:21:48;24.78;49.25
68511;SHT31;55512;50.102;19.958;2023-09-07T10:24:32;24.84;49.15
68511;SHT31;55512;50.102;19.958;2023-09-07T10:27:07;24.92;48.94
68511;SHT31;55512;50.102;19.958;2023-09-07T10:29:43;24.99;48.66
68511;SHT31;55512;50.102;19.958;2023-09-07T10:32:11;25.06;48.54
68511;SHT31;55512;50.102;19.958;2023-09-07T10:34:39;25.22;48.21
68511;SHT31;55512;50.102;19.958;2023-09-07T10:37:08;25.30;48.15
68511;SHT31;55512;50.102;19.958;2023-09-07T10:39:38;25.49;47.52
68511;SHT31;55512;50.102;19.958;2023-09-07T10:42:08;25.34;47.21
68511;SHT31;55512;50.102;19.958;2023-09-07T10:44:33;25.34;47.11
68511;SHT31;55512;50.102;19.958;2023-09-07T10:46:59;25.39;46.66
68511;SHT31;55512;50.102;19.958;2023-09-07T10:49:25;25.43;47.16
68511;SHT31;55512;50.102;19.958;2023-09-07T10:51:51;25.50;47.40
68511;SHT31;55512;50.102;19.958;2023-09-07T10:54:17;25.57;47.29
68511;SHT31;55512;50.102;19.958;2023-09-07T10:56:47;25.64;47.08
68511;SHT31;55512;50.102;19.958;2023-09-07T11:05:10;25.78;45.57
68511;SHT31;55512;50.102;19.958;2023-09-07T11:07:43;25.82;45.50
68511;SHT31;55512;50.102;19.958;2023-09-07T11:16:06;26.01;45.51
68511;SHT31;55512;50.102;19.958;2023-09-07T11:18:34;26.04;45.12
68511;SHT31;55512;50.102;19.958;2023-09-07T11:21:03;26.09;45.29
68511;SHT31;55512;50.102;19.958;2023-09-07T11:23:29;26.15;45.18
68511;SHT31;55512;50.102;19.958;2023-09-07T11:26:03;26.22;44.73
68511;SHT31;55512;50.102;19.958;2023-09-07T11:28:30;26.25;44.46
68511;SHT31;55512;50.102;19.958;2023-09-07T11:36:51;26.40;43.90
68511;SHT31;55512;50.102;19.958;2023-09-07T11:39:16;26.47;43.99
68511;SHT31;55512;50.102;19.958;2023-09-07T11:41:42;26.52;43.84
68511;SHT31;55512;50.102;19.958;2023-09-07T11:44:09;26.56;44.10
68511;SHT31;55512;50.102;19.958;2023-09-07T11:46:36;26.61;44.22
68511;SHT31;55512;50.102;19.958;2023-09-07T11:49:02;26.68;44.11
68511;SHT31;55512;50.102;19.958;2023-09-07T11:51:29;26.76;44.12
68511;SHT31;55512;50.102;19.958;2023-09-07T11:53:56;26.84;43.96
68511;SHT31;55512;50.102;19.958;2023-09-07T11:56:31;26.92;44.04
68511;SHT31;55512;50.102;19.958;2023-09-07T11:58:57;26.98;43.94
68511;SHT31;55512;50.102;19.958;2023-09-07T12:01:22;27.01;43.56
68511;SHT31;55512;50.102;19.958;2023-09-07T12:03:48;27.08;43.49
68511;SHT31;55512;50.102;19.958;2023-09-07T12:06:13;27.16;43.36
68511;SHT31;55512;50.102;19.958;2023-09-07T12:08:41;27.22;43.14
68511;SHT31;55512;50.102;19.958;2023-09-07T12:11:23;27.26;43.23
68511;SHT31;55512;50.102;19.958;2023-09-07T12:13:49;27.34;43.46
68511;SHT31;55512;50.102;19.958;2023-09-07T12:16:17;27.46;43.32
68511;SHT31;55512;50.102;19.958;2023-09-07T12:18:42;27.54;42.68
68511;SHT31;55512;50.102;19.958;2023-09-07T12:21:07;27.61;42.53
68511;SHT31;55512;50.102;19.958;2023-09-07T12:23:33;27.68;42.21
68511;SHT31;55512;50.102;19.958;2023-09-07T12:25:59;27.77;42.39
68511;SHT31;55512;50.102;19.958;2023-09-07T12:28:29;27.89;42.23
68511;SHT31;55512;50.102;19.958;2023-09-07T12:30:56;27.97;41.64
68511;SHT31;55512;50.102;19.958;2023-09-07T12:33:23;28.02;41.55
68511;SHT31;55512;50.102;19.958;2023-09-07T12:35:49;28.12;41.75
68511;SHT31;55512;50.102;19.958;2023-09-07T12:38:16;28.24;41.75
68511;SHT31;55512;50.102;19.958;2023-09-07T12:40:43;28.35;41.44
68511;SHT31;55512;50.102;19.958;2023-09-07T12:43:09;28.53;41.30
68511;SHT31;55512;50.102;19.958;2023-09-07T12:45:35;28.64;41.01
68511;SHT31;55512;50.102;19.958;2023-09-07T12:48:01;28.69;40.98
68511;SHT31;55512;50.102;19.958;2023-09-07T12:50:27;28.78;40.06
68511;SHT31;55512;50.102;19.958;2023-09-07T12:52:52;28.81;39.65
68511;SHT31;55512;50.102;19.958;2023-09-07T12:55:19;28.83;39.14
68511;SHT31;55512;50.102;19.958;2023-09-07T12:57:45;28.83;39.51
68511;SHT31;55512;50.102;19.958;2023-09-07T13:00:11;28.90;40.02
68511;SHT31;55512;50.102;19.958;2023-09-07T13:02:38;29.02;39.87
68511;SHT31;55512;50.102;19.958;2023-09-07T13:05:03;29.13;39.64
68511;SHT31;55512;50.102;19.958;2023-09-07T13:10:04;29.33;39.34
68511;SHT31;55512;50.102;19.958;2023-09-07T13:12:33;29.34;39.67
68511;SHT31;55512;50.102;19.958;2023-09-07T13:14:58;29.47;39.72
68511;SHT31;55512;50.102;19.958;2023-09-07T13:17:24;29.60;39.06
68511;SHT31;55512;50.102;19.958;2023-09-07T13:19:50;29.67;38.59
68511;SHT31;55512;50.102;19.958;2023-09-07T13:22:16;29.78;38.68
68511;SHT31;55512;50.102;19.958;2023-09-07T13:24:42;29.86;38.38
68511;SHT31;55512;50.102;19.958;2023-09-07T13:27:07;29.97;38.19
68511;SHT31;55512;50.102;19.958;2023-09-07T13:29:35;30.11;37.98
68511;SHT31;55512;50.102;19.958;2023-09-07T13:32:01;30.28;37.82
68511;SHT31;55512;50.102;19.958;2023-09-07T13:34:27;30.42;37.39
68511;SHT31;55512;50.102;19.958;2023-09-07T13:36:53;30.50;36.70
68511;SHT31;55512;50.102;19.958;2023-09-07T13:39:20;30.50;36.57
68511;SHT31;55512;50.102;19.958;2023-09-07T13:41:46;30.57;36.71
68511;SHT31;55512;50.102;19.958;2023-09-07T13:44:13;30.64;36.91
68511;SHT31;55512;50.102;19.958;2023-09-07T13:46:39;30.75;36.77
68511;SHT31;55512;50.102;19.958;2023-09-07T13:49:05;30.82;35.92
68511;SHT31;55512;50.102;19.958;2023-09-07T13:51:30;30.84;35.63
68511;SHT31;55512;50.102;19.958;2023-09-07T13:54:06;30.95;35.89
68511;SHT31;55512;50.102;19.958;2023-09-07T13:56:33;31.17;35.92
68511;SHT31;55512;50.102;19.958;2023-09-07T13:58:59;31.37;35.62
68511;SHT31;55512;50.102;19.958;2023-09-07T14:01:25;31.40;35.66
68511;SHT31;55512;50.102;19.958;2023-09-07T14:03:51;31.60;35.41
68511;SHT31;55512;50.102;19.958;2023-09-07T14:06:17;31.91;35.02
68511;SHT31;55512;50.102;19.958;2023-09-07T14:08:45;32.43;34.64
68511;SHT31;55512;50.102;19.958;2023-09-07T14:11:11;33.44;33.68
68511;SHT31;55512;50.102;19.958;2023-09-07T14:13:37;35.69;31.65
68511;SHT31;55512;50.102;19.958;2023-09-07T14:16:03;38.72;29.23
68511;SHT31;55512;50.102;19.958;2023-09-07T14:18:29;41.25;26.98
68511;SHT31;55512;50.102;19.958;2023-09-07T14:20:55;43.19;25.71
68511;SHT31;55512;50.102;19.958;2023-09-07T14:23:23;45.10;24.39
68511;SHT31;55512;50.102;19.958;2023-09-07T14:25:51;46.69;23.12
68511;SHT31;55512;50.102;19.958;2023-09-07T14:28:17;47.87;21.92
68511;SHT31;55512;50.102;19.958;2023-09-07T14:30:42;49.24;20.72
68511;SHT31;55512;50.102;19.958;2023-09-07T14:33:08;50.20;19.95
68511;SHT31;55512;50.102;19.958;2023-09-07T14:35:33;51.40;19.16
68511;SHT31;55512;50.102;19.958;2023-09-07T14:37:59;52.48;18.44
68511;SHT31;55512;50.102;19.958;2023-09-07T14:40:26;53.44;17.80
68511;SHT31;55512;50.102;19.958;2023-09-07T14:42:51;54.37;17.10
68511;SHT31;55512;50.102;19.958;2023-09-07T14:45:18;55.13;16.61
68511;SHT31;55512;50.102;19.958;2023-09-07T14:47:44;55.73;16.17
68511;SHT31;55512;50.102;19.958;2023-09-07T14:50:10;56.24;15.64
68511;SHT31;55512;50.102;19.958;2023-09-07T14:52:35;56.49;15.27
68511;SHT31;55512;50.102;19.958;2023-09-07T14:55:06;56.87;15.04
68511;SHT31;55512;50.102;19.958;2023-09-07T14:57:35;57.30;14.71
68511;SHT31;55512;50.102;19.958;2023-09-07T15:00:01;57.49;14.40
68511;SHT31;55512;50.102;19.958;2023-09-07T15:02:29;57.53;14.22
68511;SHT31;55512;50.102;19.958;2023-09-07T15:04:55;57.72;14.09
68511;SHT31;55512;50.102;19.958;2023-09-07T15:07:20;57.90;14.02
68511;SHT31;55512;50.102;19.958;2023-09-07T15:09:47;58.02;13.82
68511;SHT31;55512;50.102;19.958;2023-09-07T15:12:14;58.13;13.49
68511;SHT31;55512;50.102;19.958;2023-09-07T15:14:40;58.16;13.30
68511;SHT31;55512;50.102;19.958;2023-09-07T15:17:05;58.26;13.27
68511;SHT31;55512;50.102;19.958;2023-09-07T15:19:32;58.20;13.11
68511;SHT31;55512;50.102;19.958;2023-09-07T15:21:59;57.47;12.94
68511;SHT31;55512;50.102;19.958;2023-09-07T15:24:25;56.36;13.23
68511;SHT31;55512;50.102;19.958;2023-09-07T15:26:50;55.62;13.42
68511;SHT31;55512;50.102;19.958;2023-09-07T15:29:16;55.01;13.58
68511;SHT31;55512;50.102;19.958;2023-09-07T15:31:41;54.33;13.75
68511;SHT31;55512;50.102;19.958;2023-09-07T15:34:07;53.80;13.96
68511;SHT31;55512;50.102;19.958;2023-09-07T15:36:32;53.37;14.07